createdAt,value
2023-06-19T00:00:57.268Z,2.53
2023-06-19T00:01:57.285Z,2.54
2023-06-19T00:02:57.335Z,2.47
2023-06-19T00:03:57.427Z,2.62
2023-06-19T00:04:57.345Z,2.53
2023-06-19T00:05:57.399Z,2.47
2023-06-19T00:06:57.417Z,2.67
2023-06-19T00:07:57.447Z,2.48
2023-06-19T00:08:57.437Z,2.49
2023-06-19T00:09:57.470Z,2.50
2023-06-19T00:10:57.499Z,2.53
2023-06-19T00:11:57.539Z,2.63
2023-06-19T00:12:57.533Z,2.56
2023-06-19T00:13:57.566Z,2.45
2023-06-19T00:14:57.603Z,2.40
2023-06-19T00:15:57.622Z,2.47
2023-06-19T00:16:57.578Z,2.49
2023-06-19T00:17:57.575Z,2.45
2023-06-19T00:18:57.547Z,2.59
2023-06-19T00:19:57.528Z,2.56
2023-06-19T00:20:57.566Z,2.60
2023-06-19T00:21:57.541Z,2.71
2023-06-19T00:22:57.536Z,2.54
2023-06-19T00:23:57.608Z,2.72
2023-06-19T00:24:57.578Z,2.74
2023-06-19T00:25:57.581Z,2.71
2023-06-19T00:26:57.573Z,2.75
2023-06-19T00:27:57.579Z,2.67
2023-06-19T00:28:57.554Z,2.61
2023-06-19T00:29:57.549Z,2.43
2023-06-19T00:30:57.581Z,2.64
2023-06-19T00:31:57.599Z,2.67
2023-06-19T00:32:57.627Z,2.71
2023-06-19T00:33:57.632Z,2.70
2023-06-19T00:34:57.697Z,2.74
2023-06-19T00:35:57.662Z,2.75
2023-06-19T00:36:57.688Z,2.80
2023-06-19T00:37:57.726Z,2.83
2023-06-19T00:38:57.729Z,2.82
2023-06-19T00:39:57.726Z,2.83
2023-06-19T00:40:57.719Z,2.89
2023-06-19T00:41:57.700Z,2.82
2023-06-19T00:42:57.674Z,2.82
2023-06-19T00:43:57.640Z,2.87
2023-06-19T00:44:57.595Z,2.90
2023-06-19T00:45:57.603Z,2.89
2023-06-19T00:46:58.968Z,2.82
2023-06-19T00:47:57.528Z,2.88
2023-06-19T00:48:57.420Z,2.76
2023-06-19T00:49:57.379Z,2.76
2023-06-19T00:50:57.353Z,2.80
2023-06-19T00:51:57.306Z,2.79
2023-06-19T00:52:57.278Z,2.77
2023-06-19T00:53:57.272Z,2.73
2023-06-19T00:54:57.160Z,2.82
2023-06-19T00:55:57.113Z,2.76
2023-06-19T00:56:57.088Z,2.82
2023-06-19T00:57:57.022Z,2.87
2023-06-19T00:58:56.984Z,2.85
2023-06-19T00:59:56.935Z,2.79
2023-06-19T01:01:08.033Z,2.83
2023-06-19T01:01:57.955Z,2.84
2023-06-19T01:02:57.003Z,2.85
2023-06-19T01:03:56.969Z,2.87
2023-06-19T01:04:56.763Z,2.87
2023-06-19T01:05:56.711Z,2.89
2023-06-19T01:06:56.673Z,2.94
2023-06-19T01:07:56.615Z,2.93
2023-06-19T01:08:56.620Z,2.86
2023-06-19T01:09:56.602Z,2.82
2023-06-19T01:10:56.540Z,2.85
2023-06-19T01:11:56.528Z,2.80
2023-06-19T01:12:56.516Z,2.89
2023-06-19T01:13:56.497Z,2.89
2023-06-19T01:14:56.500Z,2.84
2023-06-19T01:15:56.546Z,2.85
2023-06-19T01:16:56.573Z,2.90
2023-06-19T01:17:56.549Z,2.88
2023-06-19T01:18:56.487Z,2.90
2023-06-19T01:19:56.509Z,2.91
2023-06-19T01:20:56.533Z,2.89
2023-06-19T01:21:56.517Z,2.83
2023-06-19T01:22:56.462Z,2.83
2023-06-19T01:23:56.524Z,2.88
2023-06-19T01:24:56.504Z,2.86
2023-06-19T01:25:56.422Z,2.94
2023-06-19T01:26:56.459Z,3.01
2023-06-19T01:27:56.437Z,3.03
2023-06-19T01:28:56.439Z,2.94
2023-06-19T01:29:56.425Z,2.96
2023-06-19T01:30:56.429Z,2.95
2023-06-19T01:31:56.450Z,3.04
2023-06-19T01:32:56.435Z,3.02
2023-06-19T01:33:56.319Z,2.92
2023-06-19T01:34:56.314Z,2.96
2023-06-19T01:35:56.296Z,3.01
2023-06-19T01:36:56.277Z,3.03
2023-06-19T01:37:56.264Z,3.04
2023-06-19T01:38:56.206Z,3.12
2023-06-19T01:39:56.197Z,3.06
2023-06-19T01:40:56.136Z,3.10
2023-06-19T01:41:56.153Z,3.06
2023-06-19T01:42:56.136Z,3.06
2023-06-19T01:43:56.079Z,3.10
2023-06-19T01:44:56.033Z,3.04
2023-06-19T01:45:56.056Z,3.13
2023-06-19T01:46:56.050Z,3.10
2023-06-19T01:47:56.014Z,3.05
2023-06-19T01:48:55.967Z,3.04
2023-06-19T01:49:55.975Z,2.95
2023-06-19T01:50:55.970Z,2.97
2023-06-19T01:51:55.956Z,2.89
2023-06-19T01:52:55.955Z,2.79
2023-06-19T01:53:55.969Z,2.73
2023-06-19T01:54:55.926Z,2.84
2023-06-19T01:55:55.954Z,2.81
2023-06-19T01:56:55.908Z,2.77
2023-06-19T01:57:55.951Z,2.78
2023-06-19T01:58:55.981Z,2.84
2023-06-19T01:59:55.962Z,2.81
2023-06-19T02:00:55.958Z,2.72
2023-06-19T02:01:55.972Z,2.76
2023-06-19T02:02:56.071Z,2.71
2023-06-19T02:03:56.033Z,2.74
2023-06-19T02:04:56.002Z,2.83
2023-06-19T02:05:56.058Z,2.88
2023-06-19T02:06:56.063Z,2.85
2023-06-19T02:07:56.029Z,2.94
2023-06-19T02:08:56.066Z,2.96
2023-06-19T02:09:56.018Z,2.88
2023-06-19T02:10:56.044Z,2.83
2023-06-19T02:11:56.056Z,2.81
2023-06-19T02:12:56.068Z,2.88
2023-06-19T02:13:56.070Z,2.78
2023-06-19T02:14:56.107Z,2.76
2023-06-19T02:15:56.166Z,2.76
2023-06-19T02:16:56.165Z,2.74
2023-06-19T02:17:57.020Z,2.71
2023-06-19T02:18:56.165Z,2.78
2023-06-19T02:19:56.179Z,2.89
2023-06-19T02:20:56.174Z,2.91
2023-06-19T02:21:56.184Z,2.90
2023-06-19T02:22:56.147Z,2.95
2023-06-19T02:23:56.163Z,2.99
2023-06-19T02:24:56.145Z,2.95
2023-06-19T02:25:56.145Z,2.88
2023-06-19T02:26:56.149Z,2.82
2023-06-19T02:27:56.163Z,2.82
2023-06-19T02:28:56.218Z,2.77
2023-06-19T02:29:56.185Z,2.77
2023-06-19T02:30:56.191Z,2.91
2023-06-19T02:31:56.245Z,2.89
2023-06-19T02:32:56.222Z,2.91
2023-06-19T02:33:56.240Z,2.99
2023-06-19T02:34:56.283Z,2.98
2023-06-19T02:35:56.261Z,2.91
2023-06-19T02:36:56.329Z,2.89
2023-06-19T02:37:56.270Z,2.88
2023-06-19T02:38:56.315Z,2.86
2023-06-19T02:39:56.323Z,2.89
2023-06-19T02:40:56.367Z,2.92
2023-06-19T02:41:56.413Z,2.98
2023-06-19T02:42:56.448Z,3.03
2023-06-19T02:43:56.496Z,3.02
2023-06-19T02:44:56.588Z,3.00
2023-06-19T02:45:56.570Z,3.03
2023-06-19T02:46:56.541Z,3.01
2023-06-19T02:47:56.594Z,2.99
2023-06-19T02:48:56.566Z,3.04
2023-06-19T02:49:56.643Z,2.94
2023-06-19T02:50:56.652Z,2.90
2023-06-19T02:51:56.696Z,2.94
2023-06-19T02:52:56.682Z,2.90
2023-06-19T02:53:56.722Z,2.82
2023-06-19T02:54:56.749Z,2.81
2023-06-19T02:55:58.397Z,2.72
2023-06-19T02:56:56.821Z,2.69
2023-06-19T02:57:56.772Z,2.71
2023-06-19T02:58:56.823Z,2.76
2023-06-19T02:59:56.785Z,2.84
2023-06-19T03:00:56.807Z,2.75
2023-06-19T03:01:56.838Z,2.87
2023-06-19T03:02:56.893Z,2.86
2023-06-19T03:03:56.794Z,2.88
2023-06-19T03:04:56.861Z,2.93
2023-06-19T03:05:56.862Z,3.01
2023-06-19T03:06:56.946Z,3.01
2023-06-19T03:07:56.897Z,3.01
2023-06-19T03:08:56.811Z,2.96
2023-06-19T03:09:56.863Z,2.95
2023-06-19T03:10:56.875Z,3.02
2023-06-19T03:11:56.930Z,3.04
2023-06-19T03:12:56.941Z,3.11
2023-06-19T03:13:56.956Z,3.15
2023-06-19T03:14:56.959Z,3.05
2023-06-19T03:15:56.997Z,2.94
2023-06-19T03:16:57.116Z,2.97
2023-06-19T03:17:57.138Z,3.01
2023-06-19T03:18:57.099Z,2.99
2023-06-19T03:19:57.132Z,2.89
2023-06-19T03:20:57.154Z,2.91
2023-06-19T03:21:57.167Z,3.02
2023-06-19T03:22:57.187Z,3.08
2023-06-19T03:23:57.217Z,3.09
2023-06-19T03:24:57.154Z,3.08
2023-06-19T03:25:57.180Z,3.10
2023-06-19T03:26:57.219Z,3.00
2023-06-19T03:27:57.171Z,2.95
2023-06-19T03:28:57.203Z,2.93
2023-06-19T03:29:57.213Z,2.98
2023-06-19T03:30:57.214Z,2.96
2023-06-19T03:31:57.207Z,2.99
2023-06-19T03:32:57.238Z,3.15
2023-06-19T03:33:57.260Z,3.05
2023-06-19T03:34:57.234Z,2.99
2023-06-19T03:35:57.262Z,3.00
2023-06-19T03:36:57.299Z,2.96
2023-06-19T03:37:57.256Z,3.01
2023-06-19T03:38:57.220Z,3.02
2023-06-19T03:39:57.233Z,3.08
2023-06-19T03:40:57.302Z,3.11
2023-06-19T03:41:57.269Z,3.07
2023-06-19T03:42:57.295Z,3.03
2023-06-19T03:43:57.243Z,3.06
2023-06-19T03:44:57.223Z,3.07
2023-06-19T03:45:57.242Z,3.07
2023-06-19T03:46:57.194Z,3.07
2023-06-19T03:47:57.234Z,3.06
2023-06-19T03:48:57.202Z,3.12
2023-06-19T03:50:02.058Z,3.02
2023-06-19T03:50:58.159Z,3.02
2023-06-19T03:51:57.116Z,3.00
2023-06-19T03:52:57.116Z,3.00
2023-06-19T03:53:57.031Z,3.03
2023-06-19T03:54:56.990Z,3.01
2023-06-19T03:55:56.979Z,2.94
2023-06-19T03:56:56.959Z,2.94
2023-06-19T03:57:57.915Z,2.99
2023-06-19T04:00:12.477Z,0.50
2023-06-19T04:01:12.460Z,0.50
2023-06-19T04:02:12.449Z,0.50
2023-06-19T04:03:12.540Z,0.50
2023-06-19T04:04:12.447Z,0.50
2023-06-19T04:05:12.396Z,0.50
2023-06-19T04:06:12.400Z,0.51
2023-06-19T04:07:12.360Z,0.51
2023-06-19T04:08:12.329Z,0.51
2023-06-19T04:09:12.358Z,0.51
2023-06-19T04:10:12.335Z,0.51
2023-06-19T04:11:12.313Z,0.52
2023-06-19T04:12:14.207Z,0.51
2023-06-19T04:13:12.266Z,0.52
2023-06-19T04:14:12.276Z,0.51
2023-06-19T04:15:12.256Z,0.52
2023-06-19T04:16:12.293Z,0.53
2023-06-19T04:17:12.235Z,0.52
2023-06-19T04:18:12.234Z,0.54
2023-06-19T04:19:12.166Z,0.54
2023-06-19T04:20:12.761Z,0.53
2023-06-19T04:21:12.131Z,0.54
2023-06-19T04:22:12.138Z,0.53
2023-06-19T04:23:12.137Z,0.54
2023-06-19T04:24:12.196Z,0.53
2023-06-19T04:25:12.277Z,0.55
2023-06-19T04:26:12.216Z,0.53
2023-06-19T04:27:12.234Z,0.54
2023-06-19T04:28:12.281Z,0.53
2023-06-19T04:29:12.293Z,0.54
2023-06-19T04:30:12.361Z,0.55
2023-06-19T04:31:12.398Z,0.55
2023-06-19T04:32:12.544Z,0.56
2023-06-19T04:33:12.511Z,0.56
2023-06-19T04:34:12.487Z,0.56
2023-06-19T04:35:12.580Z,0.54
2023-06-19T04:36:12.544Z,0.55
2023-06-19T04:37:12.615Z,0.54
2023-06-19T04:38:12.637Z,0.55
2023-06-19T04:39:12.650Z,0.57
2023-06-19T04:40:12.704Z,0.56
2023-06-19T04:41:13.683Z,0.57
2023-06-19T04:42:12.784Z,0.58
2023-06-19T04:43:12.830Z,0.58
2023-06-19T04:44:12.851Z,0.58
2023-06-19T04:45:12.893Z,0.58
2023-06-19T04:46:12.932Z,0.58
2023-06-19T04:47:12.948Z,0.57
2023-06-19T04:48:13.035Z,0.57
2023-06-19T04:49:13.002Z,0.57
2023-06-19T04:50:13.058Z,0.57
2023-06-19T04:51:13.099Z,0.56
2023-06-19T04:52:13.148Z,0.56
2023-06-19T04:53:13.158Z,0.53
2023-06-19T04:54:13.211Z,0.52
2023-06-19T04:55:13.226Z,0.50
2023-06-19T04:56:13.286Z,0.50
2023-06-19T04:57:13.307Z,0.51
2023-06-19T04:58:13.301Z,0.51
2023-06-19T04:59:13.324Z,0.50
2023-06-19T05:00:13.370Z,0.51
2023-06-19T05:01:13.454Z,0.51
2023-06-19T05:02:13.462Z,0.51
2023-06-19T05:03:13.477Z,0.51
2023-06-19T05:04:13.553Z,0.50
2023-06-19T05:05:13.566Z,0.51
2023-06-19T05:06:13.588Z,0.50
2023-06-19T05:07:13.593Z,0.50
2023-06-19T05:08:13.592Z,0.51
2023-06-19T05:09:13.677Z,0.51
2023-06-19T05:10:13.701Z,0.51
2023-06-19T05:11:13.737Z,0.51
2023-06-19T05:12:13.768Z,0.51
2023-06-19T05:13:13.870Z,0.51
2023-06-19T05:14:13.834Z,0.51
2023-06-19T05:15:13.896Z,0.50
2023-06-19T05:16:13.991Z,0.51
2023-06-19T05:17:14.002Z,0.51
2023-06-19T05:18:14.032Z,0.50
2023-06-19T05:19:14.067Z,0.51
2023-06-19T05:20:14.078Z,0.51
2023-06-19T05:21:14.115Z,0.50
2023-06-19T05:22:14.249Z,0.52
2023-06-19T05:23:14.195Z,0.51
2023-06-19T05:24:14.281Z,0.51
2023-06-19T05:25:14.318Z,0.52
2023-06-19T05:26:14.358Z,0.53
2023-06-19T05:27:14.401Z,0.53
2023-06-19T05:28:14.428Z,0.53
2023-06-19T05:29:14.504Z,0.54
2023-06-19T05:30:14.526Z,0.52
2023-06-19T05:31:14.600Z,0.53
2023-06-19T05:32:14.653Z,0.53
2023-06-19T05:33:14.693Z,0.55
2023-06-19T05:34:14.707Z,0.56
2023-06-19T05:35:16.401Z,0.60
2023-06-19T05:36:14.676Z,0.60
2023-06-19T05:37:14.754Z,0.61
2023-06-19T05:38:14.780Z,0.62
2023-06-19T05:39:14.804Z,0.63
2023-06-19T05:40:14.860Z,0.65
2023-06-19T05:41:14.984Z,0.65
2023-06-19T05:42:14.997Z,0.67
2023-06-19T05:43:15.054Z,0.63
2023-06-19T05:44:15.104Z,0.60
2023-06-19T05:45:15.120Z,0.62
2023-06-19T05:46:15.253Z,0.64
2023-06-19T05:47:15.228Z,0.66
2023-06-19T05:48:15.283Z,0.68
2023-06-19T05:49:15.351Z,0.71
2023-06-19T05:50:15.368Z,0.71
2023-06-19T05:51:15.452Z,0.78
2023-06-19T05:52:15.478Z,0.80
2023-06-19T05:53:15.906Z,0.89
2023-06-19T05:54:15.539Z,0.92
2023-06-19T05:55:15.590Z,0.98
2023-06-19T05:56:15.625Z,0.91
2023-06-19T05:57:15.716Z,0.91
2023-06-19T05:58:15.720Z,0.94
2023-06-19T05:59:15.801Z,0.94
2023-06-19T06:00:15.772Z,0.98
2023-06-19T06:01:15.920Z,1.04
2023-06-19T06:02:15.886Z,1.07
2023-06-19T06:03:16.031Z,1.16
2023-06-19T06:04:16.059Z,1.20
2023-06-19T06:05:16.018Z,1.25
2023-06-19T06:06:16.061Z,1.33
2023-06-19T06:07:16.122Z,1.36
2023-06-19T06:08:16.159Z,1.40
2023-06-19T06:09:16.184Z,1.43
2023-06-19T06:10:16.204Z,1.44
2023-06-19T06:11:16.269Z,1.50
2023-06-19T06:12:16.314Z,1.55
2023-06-19T06:13:16.375Z,1.58
2023-06-19T06:14:16.387Z,1.64
2023-06-19T06:15:16.512Z,1.69
2023-06-19T06:16:16.583Z,1.69
2023-06-19T06:17:16.549Z,1.72
2023-06-19T06:18:16.565Z,1.64
2023-06-19T06:19:16.602Z,1.67
2023-06-19T06:20:16.657Z,1.67
2023-06-19T06:21:16.716Z,1.71
2023-06-19T06:22:16.720Z,1.78
2023-06-19T06:23:16.764Z,1.75
2023-06-19T06:24:16.856Z,1.75
2023-06-19T06:25:16.822Z,1.80
2023-06-19T06:26:16.852Z,1.83
2023-06-19T06:27:16.862Z,1.90
2023-06-19T06:28:16.896Z,1.93
2023-06-19T06:29:16.943Z,1.94
2023-06-19T06:30:19.209Z,1.99
2023-06-19T06:31:16.948Z,2.06
2023-06-19T06:32:16.935Z,2.12
2023-06-19T06:33:16.895Z,2.08
2023-06-19T06:34:16.867Z,2.11
2023-06-19T06:35:16.863Z,2.11
2023-06-19T06:36:25.683Z,2.25
2023-06-19T06:37:17.856Z,2.25
2023-06-19T06:38:16.800Z,2.26
2023-06-19T06:39:16.792Z,2.26
2023-06-19T06:40:16.757Z,2.28
2023-06-19T06:41:16.745Z,2.32
2023-06-19T06:42:16.713Z,2.35
2023-06-19T06:43:16.726Z,2.35
2023-06-19T06:44:16.714Z,2.36
2023-06-19T06:45:16.686Z,2.37
2023-06-19T06:46:16.796Z,2.50
2023-06-19T06:47:16.670Z,2.58
2023-06-19T06:48:16.658Z,2.69
2023-06-19T06:49:16.729Z,2.76
2023-06-19T06:50:16.820Z,2.82
2023-06-19T06:51:16.877Z,2.80
2023-06-19T06:52:16.892Z,2.83
2023-06-19T06:53:16.903Z,2.81
2023-06-19T06:54:16.958Z,2.75
2023-06-19T06:55:17.011Z,2.67
2023-06-19T06:56:17.024Z,2.65
2023-06-19T06:57:18.621Z,2.73
2023-06-19T06:58:17.108Z,2.71
2023-06-19T06:59:17.160Z,2.75
2023-06-19T07:00:17.181Z,2.80
2023-06-19T07:01:17.298Z,2.81
2023-06-19T07:02:17.323Z,2.78
2023-06-19T07:03:17.456Z,2.76
2023-06-19T07:04:17.346Z,2.71
2023-06-19T07:05:17.477Z,2.76
2023-06-19T07:06:17.443Z,2.74
2023-06-19T07:07:17.481Z,2.74
2023-06-19T07:08:17.527Z,2.72
2023-06-19T07:09:17.584Z,2.62
2023-06-19T07:10:17.615Z,2.59
2023-06-19T07:11:17.607Z,2.51
2023-06-19T07:12:17.710Z,2.48
2023-06-19T07:13:17.720Z,2.49
2023-06-19T07:14:17.741Z,2.50
2023-06-19T07:15:17.805Z,2.41
2023-06-19T07:16:17.860Z,2.42
2023-06-19T07:17:19.716Z,2.32
2023-06-19T07:18:17.876Z,2.36
2023-06-19T07:19:17.868Z,2.34
2023-06-19T07:20:19.773Z,2.34
2023-06-19T07:21:17.790Z,2.30
2023-06-19T07:22:17.760Z,2.28
2023-06-19T07:23:17.742Z,2.26
2023-06-19T07:24:17.782Z,2.20
2023-06-19T07:25:17.725Z,2.22
2023-06-19T07:26:17.724Z,2.14
2023-06-19T07:27:17.736Z,2.14
2023-06-19T07:28:17.702Z,2.12
2023-06-19T07:29:17.660Z,2.08
2023-06-19T07:30:17.808Z,2.10
2023-06-19T07:31:17.788Z,2.07
2023-06-19T07:32:17.834Z,2.02
2023-06-19T07:33:17.884Z,2.04
2023-06-19T07:34:17.930Z,2.00
2023-06-19T07:35:17.968Z,2.04
2023-06-19T07:36:17.992Z,2.00
2023-06-19T07:37:18.053Z,2.00
2023-06-19T07:38:18.138Z,2.01
2023-06-19T07:39:18.164Z,2.03
2023-06-19T07:40:18.219Z,2.05
2023-06-19T07:41:18.253Z,2.18
2023-06-19T07:42:18.284Z,2.25
2023-06-19T07:43:18.310Z,2.21
2023-06-19T07:44:19.269Z,2.11
2023-06-19T07:45:18.369Z,2.07
2023-06-19T07:46:18.378Z,2.16
2023-06-19T07:47:18.353Z,2.32
2023-06-19T07:48:18.377Z,2.32
2023-06-19T07:49:18.445Z,2.34
2023-06-19T07:50:18.399Z,2.32
2023-06-19T07:51:18.399Z,2.43
2023-06-19T07:52:18.456Z,2.40
2023-06-19T07:53:18.457Z,2.35
2023-06-19T07:54:18.479Z,2.35
2023-06-19T07:55:18.501Z,2.37
2023-06-19T07:56:18.528Z,2.31
2023-06-19T07:57:18.543Z,2.42
2023-06-19T07:58:18.539Z,2.39
2023-06-19T07:59:18.546Z,2.44
2023-06-19T08:00:18.582Z,2.46
2023-06-19T08:01:18.563Z,2.49
2023-06-19T08:02:18.633Z,2.50
2023-06-19T08:03:18.672Z,2.47
2023-06-19T08:04:18.652Z,2.51
2023-06-19T08:05:18.718Z,2.46
2023-06-19T08:06:18.629Z,2.41
2023-06-19T08:07:18.659Z,2.38
2023-06-19T08:08:18.678Z,2.24
2023-06-19T08:09:18.678Z,2.10
2023-06-19T08:10:18.651Z,2.03
2023-06-19T08:11:18.680Z,1.96
2023-06-19T08:12:18.687Z,2.03
2023-06-19T08:13:18.701Z,2.04
2023-06-19T08:14:18.744Z,2.02
2023-06-19T08:15:18.720Z,1.90
2023-06-19T08:16:18.769Z,1.92
2023-06-19T08:17:19.106Z,1.78
2023-06-19T08:18:18.785Z,1.71
2023-06-19T08:19:18.841Z,1.74
2023-06-19T08:20:18.856Z,1.84
2023-06-19T08:21:18.877Z,1.88
2023-06-19T08:22:18.884Z,1.97
2023-06-19T08:23:18.884Z,2.01
2023-06-19T08:24:18.939Z,2.05
2023-06-19T08:25:19.018Z,2.06
2023-06-19T08:26:18.957Z,2.05
2023-06-19T08:27:18.981Z,2.08
2023-06-19T08:28:18.956Z,2.00
2023-06-19T08:29:19.029Z,1.82
2023-06-19T08:30:19.028Z,1.82
2023-06-19T08:31:19.031Z,1.71
2023-06-19T08:32:19.115Z,1.66
2023-06-19T08:33:19.095Z,1.55
2023-06-19T08:34:19.113Z,1.49
2023-06-19T08:35:19.137Z,1.31
2023-06-19T08:36:19.799Z,1.29
2023-06-19T08:37:19.151Z,1.37
2023-06-19T08:38:19.180Z,1.51
2023-06-19T08:39:19.203Z,1.57
2023-06-19T08:40:19.227Z,1.77
2023-06-19T08:41:19.292Z,1.85
2023-06-19T08:42:19.283Z,1.92
2023-06-19T08:43:19.247Z,2.02
2023-06-19T08:44:19.241Z,2.13
2023-06-19T08:45:19.244Z,2.25
2023-06-19T08:46:19.361Z,2.24
2023-06-19T08:47:19.282Z,2.39
2023-06-19T08:48:19.268Z,2.47
2023-06-19T08:49:19.251Z,2.65
2023-06-19T08:50:19.282Z,2.65
2023-06-19T08:51:19.271Z,2.66
2023-06-19T08:52:19.256Z,2.76
2023-06-19T08:53:19.276Z,2.95
2023-06-19T08:54:19.372Z,3.16
2023-06-19T08:55:19.261Z,3.48
2023-06-19T08:56:19.259Z,3.67
2023-06-19T08:57:19.437Z,3.69
2023-06-19T08:58:19.264Z,3.68
2023-06-19T08:59:19.263Z,3.61
2023-06-19T09:00:19.219Z,3.58
2023-06-19T09:01:19.233Z,3.73
2023-06-19T09:02:19.274Z,3.74
2023-06-19T09:03:19.267Z,3.88
2023-06-19T09:04:19.365Z,3.77
2023-06-19T09:05:19.198Z,3.78
2023-06-19T09:06:19.193Z,3.46
2023-06-19T09:07:19.287Z,3.28
2023-06-19T09:08:19.157Z,3.12
2023-06-19T09:09:19.138Z,3.05
2023-06-19T09:10:19.127Z,2.89
2023-06-19T09:11:19.125Z,2.78
2023-06-19T09:12:19.245Z,2.77
2023-06-19T09:13:19.078Z,2.74
2023-06-19T09:14:19.087Z,2.86
2023-06-19T09:15:19.096Z,2.83
2023-06-19T09:16:19.085Z,2.78
2023-06-19T09:17:19.091Z,2.76
2023-06-19T09:18:19.064Z,2.75
2023-06-19T09:19:19.013Z,2.63
2023-06-19T09:20:18.994Z,2.69
2023-06-19T09:21:19.060Z,2.63
2023-06-19T09:22:18.960Z,2.62
2023-06-19T09:23:18.962Z,2.59
2023-06-19T09:24:18.977Z,2.49
2023-06-19T09:25:18.919Z,2.53
2023-06-19T09:26:18.982Z,2.53
2023-06-19T09:27:18.927Z,2.47
2023-06-19T09:28:18.918Z,2.50
2023-06-19T09:29:21.262Z,2.49
2023-06-19T09:30:18.874Z,2.43
2023-06-19T09:31:18.838Z,2.40
2023-06-19T09:32:18.861Z,2.34
2023-06-19T09:33:18.944Z,2.30
2023-06-19T09:34:18.907Z,2.27
2023-06-19T09:35:18.774Z,2.20
2023-06-19T09:36:18.751Z,2.22
2023-06-19T09:37:18.705Z,2.20
2023-06-19T09:38:18.725Z,2.18
2023-06-19T09:39:18.719Z,2.17
2023-06-19T09:40:18.736Z,2.22
2023-06-19T09:41:18.664Z,2.48
2023-06-19T09:42:18.665Z,2.66
2023-06-19T09:43:18.634Z,2.69
2023-06-19T09:44:18.601Z,2.70
2023-06-19T09:45:18.597Z,2.82
2023-06-19T09:46:18.546Z,2.79
2023-06-19T09:47:18.587Z,2.78
2023-06-19T09:48:18.599Z,2.72
2023-06-19T09:49:18.515Z,2.99
2023-06-19T09:50:21.382Z,3.08
2023-06-19T09:51:18.444Z,3.08
2023-06-19T09:52:18.448Z,3.09
2023-06-19T09:53:18.531Z,3.06
2023-06-19T09:54:18.558Z,2.95
2023-06-19T09:55:18.396Z,2.87
2023-06-19T09:56:18.419Z,3.13
2023-06-19T09:57:18.345Z,3.21
2023-06-19T09:58:18.307Z,3.32
2023-06-19T09:59:18.304Z,3.41
2023-06-19T10:00:18.305Z,3.37
2023-06-19T10:01:18.537Z,3.38
2023-06-19T10:02:18.294Z,3.35
2023-06-19T10:03:18.462Z,3.37
2023-06-19T10:04:18.232Z,3.63
2023-06-19T10:05:18.248Z,3.68
2023-06-19T10:06:18.180Z,3.74
2023-06-19T10:07:18.155Z,3.94
2023-06-19T10:08:18.150Z,4.01
2023-06-19T10:09:18.113Z,3.99
2023-06-19T10:10:18.098Z,3.70
2023-06-19T10:11:18.093Z,3.48
2023-06-19T10:12:18.063Z,3.27
2023-06-19T10:13:18.092Z,3.26
2023-06-19T10:14:18.047Z,3.47
2023-06-19T10:15:18.113Z,3.27
2023-06-19T10:16:18.118Z,3.23
2023-06-19T10:17:18.023Z,3.10
2023-06-19T10:18:18.065Z,3.61
2023-06-19T10:19:17.963Z,3.69
2023-06-19T10:20:17.948Z,3.30
2023-06-19T10:21:17.923Z,3.26
2023-06-19T10:22:17.943Z,3.20
2023-06-19T10:23:20.436Z,3.04
2023-06-19T10:24:17.891Z,3.02
2023-06-19T10:25:17.851Z,3.08
2023-06-19T10:26:17.820Z,2.93
2023-06-19T10:27:17.830Z,2.96
2023-06-19T10:28:17.782Z,3.05
2023-06-19T10:29:17.762Z,2.82
2023-06-19T10:30:17.799Z,2.70
2023-06-19T10:31:17.733Z,2.85
2023-06-19T10:32:17.701Z,3.09
2023-06-19T10:33:17.705Z,3.22
2023-06-19T10:34:17.653Z,2.93
2023-06-19T10:35:17.676Z,2.63
2023-06-19T10:36:17.671Z,2.33
2023-06-19T10:37:17.610Z,2.35
2023-06-19T10:38:17.668Z,2.57
2023-06-19T10:39:17.570Z,2.63
2023-06-19T10:40:17.653Z,2.64
2023-06-19T10:41:17.569Z,2.49
2023-06-19T10:42:17.542Z,2.37
2023-06-19T10:43:17.520Z,2.28
2023-06-19T10:44:17.475Z,2.23
2023-06-19T10:45:17.501Z,2.29
2023-06-19T10:46:17.526Z,2.36
2023-06-19T10:47:17.446Z,2.21
2023-06-19T10:48:17.426Z,1.97
2023-06-19T10:49:17.386Z,2.01
2023-06-19T10:50:17.387Z,1.98
2023-06-19T10:51:17.363Z,1.93
2023-06-19T10:52:17.340Z,2.01
2023-06-19T10:53:17.323Z,2.07
2023-06-19T10:54:17.283Z,1.86
2023-06-19T10:55:17.237Z,1.73
2023-06-19T10:56:17.260Z,1.68
2023-06-19T10:57:17.202Z,1.60
2023-06-19T10:58:17.203Z,1.84
2023-06-19T10:59:17.191Z,1.95
2023-06-19T11:00:17.159Z,1.89
2023-06-19T11:01:17.136Z,1.75
2023-06-19T11:02:17.142Z,1.62
2023-06-19T11:03:17.209Z,1.59
2023-06-19T11:04:17.129Z,1.76
2023-06-19T11:05:17.131Z,1.76
2023-06-19T11:06:17.183Z,1.72
2023-06-19T11:07:17.211Z,1.56
2023-06-19T11:08:17.277Z,1.54
2023-06-19T11:09:17.281Z,1.50
2023-06-19T11:10:17.346Z,1.50
2023-06-19T11:11:17.370Z,1.58
2023-06-19T11:12:17.397Z,1.78
2023-06-19T11:13:17.461Z,1.87
2023-06-19T11:14:17.532Z,1.81
2023-06-19T11:15:17.548Z,2.03
2023-06-19T11:16:17.672Z,2.05
2023-06-19T11:17:17.799Z,1.99
2023-06-19T11:18:17.642Z,1.81
2023-06-19T11:19:17.711Z,1.77
2023-06-19T11:20:17.745Z,1.40
2023-06-19T11:21:17.804Z,1.10
2023-06-19T11:22:17.826Z,0.86
2023-06-19T11:23:17.826Z,0.97
2023-06-19T11:24:17.931Z,1.08
2023-06-19T11:25:17.883Z,0.95
2023-06-19T11:26:17.910Z,0.87
2023-06-19T11:27:17.964Z,0.72
2023-06-19T11:28:18.001Z,0.75
2023-06-19T11:29:18.048Z,0.74
2023-06-19T11:30:18.092Z,0.67
2023-06-19T11:31:18.165Z,0.61
2023-06-19T11:32:18.201Z,0.70
2023-06-19T11:33:18.157Z,0.78
2023-06-19T11:34:19.095Z,0.83
2023-06-19T11:35:18.211Z,0.83
2023-06-19T11:36:18.199Z,0.90
2023-06-19T11:37:18.225Z,0.95
2023-06-19T11:38:18.278Z,0.98
2023-06-19T11:39:18.310Z,0.94
2023-06-19T11:40:18.317Z,0.92
2023-06-19T11:41:18.358Z,0.89
2023-06-19T11:42:18.405Z,0.78
2023-06-19T11:43:18.429Z,0.77
2023-06-19T11:44:18.410Z,0.77
2023-06-19T11:45:18.455Z,0.79
2023-06-19T11:46:18.485Z,0.81
2023-06-19T11:47:18.477Z,0.76
2023-06-19T11:48:18.467Z,0.77
2023-06-19T11:49:18.516Z,0.75
2023-06-19T11:50:18.574Z,0.63
2023-06-19T11:51:18.631Z,0.66
2023-06-19T11:52:18.594Z,0.67
2023-06-19T11:53:18.932Z,0.70
2023-06-19T11:54:18.670Z,0.70
2023-06-19T11:55:18.719Z,0.67
2023-06-19T11:56:18.717Z,0.71
2023-06-19T11:57:18.739Z,0.70
2023-06-19T11:58:18.753Z,0.57
2023-06-19T11:59:18.810Z,0.56
2023-06-19T12:00:18.885Z,0.56
2023-06-19T12:01:18.853Z,0.54
2023-06-19T12:02:18.940Z,0.54
2023-06-19T12:03:19.039Z,0.59
2023-06-19T12:04:19.208Z,0.67
2023-06-19T12:05:18.982Z,0.77
2023-06-19T12:06:18.970Z,0.81
2023-06-19T12:07:19.028Z,0.87
2023-06-19T12:08:19.023Z,0.90
2023-06-19T12:09:19.057Z,0.93
2023-06-19T12:10:19.071Z,0.95
2023-06-19T12:11:19.099Z,1.00
2023-06-19T12:12:19.156Z,0.95
2023-06-19T12:13:19.199Z,0.90
2023-06-19T12:14:19.197Z,0.87
2023-06-19T12:15:19.211Z,0.89
2023-06-19T12:16:19.289Z,0.80
2023-06-19T12:17:19.279Z,0.78
2023-06-19T12:18:19.337Z,0.72
2023-06-19T12:19:21.022Z,0.70
2023-06-19T12:20:19.363Z,0.66
2023-06-19T12:21:34.342Z,0.54
2023-06-19T12:22:20.375Z,0.52
2023-06-19T12:23:19.352Z,0.51
2023-06-19T12:24:19.384Z,0.49
2023-06-19T12:25:19.868Z,0.54
2023-06-19T12:26:19.354Z,0.52
2023-06-19T12:27:19.310Z,0.53
2023-06-19T12:28:19.363Z,0.54
2023-06-19T12:29:19.346Z,0.55
2023-06-19T12:30:19.293Z,0.61
2023-06-19T12:31:19.390Z,0.67
2023-06-19T12:32:19.258Z,0.73
2023-06-19T12:33:19.220Z,0.77
2023-06-19T12:34:30.204Z,0.80
2023-06-19T12:35:20.212Z,0.78
2023-06-19T12:36:19.209Z,0.69
2023-06-19T12:37:19.149Z,0.77
2023-06-19T12:38:19.188Z,0.70
2023-06-19T12:39:19.135Z,0.74
2023-06-19T12:40:19.116Z,0.72
2023-06-19T12:41:19.112Z,0.73
2023-06-19T12:42:19.122Z,0.77
2023-06-19T12:43:19.078Z,0.79
2023-06-19T12:44:19.067Z,0.87
2023-06-19T12:45:19.071Z,0.80
2023-06-19T12:46:19.086Z,0.70
2023-06-19T12:47:19.037Z,0.64
2023-06-19T12:48:19.010Z,0.62
2023-06-19T12:49:18.998Z,0.61
2023-06-19T12:50:18.967Z,0.63
2023-06-19T12:51:18.963Z,0.71
2023-06-19T12:52:18.946Z,0.74
2023-06-19T12:53:18.973Z,0.77
2023-06-19T12:54:18.965Z,0.82
2023-06-19T12:55:19.006Z,0.79
2023-06-19T12:56:19.046Z,0.80
2023-06-19T12:57:19.053Z,0.81
2023-06-19T12:58:19.080Z,0.78
2023-06-19T12:59:19.131Z,0.81
2023-06-19T13:00:19.105Z,0.82
2023-06-19T13:01:19.513Z,0.80
2023-06-19T13:02:19.246Z,0.76
2023-06-19T13:03:19.247Z,0.75
2023-06-19T13:04:19.266Z,0.73
2023-06-19T13:05:19.252Z,0.74
2023-06-19T13:06:19.270Z,0.71
2023-06-19T13:07:19.272Z,0.69
2023-06-19T13:08:19.304Z,0.65
2023-06-19T13:09:19.340Z,0.66
2023-06-19T13:10:19.366Z,0.65
2023-06-19T13:11:19.375Z,0.65
2023-06-19T13:12:19.432Z,0.65
2023-06-19T13:13:19.430Z,0.64
2023-06-19T13:14:19.466Z,0.63
2023-06-19T13:15:19.478Z,0.64
2023-06-19T13:16:24.732Z,0.65
2023-06-19T13:17:20.466Z,0.65
2023-06-19T13:18:19.484Z,0.63
2023-06-19T13:19:19.472Z,0.64
2023-06-19T13:20:19.447Z,0.61